Aeroporto :







RITROVATECI SU...

 
LOGIN :

Iscrizione | Disclaimer

   EN    FR    IT 

 









Sommario :    VFR   VFR Marginale   IFR   IFR Intensivo   IFR Molto Intensivo
Visibilità : 
Base nubi : 
>= 8 km
>= 3000ft
5 / 8 km
1000 / 3000 ft
1500m / 5 km
500 / 1000 ft
800 / 1500m
200 / 500 ft
< 800m
< 200 ft
Simboli :   Temporali  Nebbia  Neve Forte  Precipitazioni Forti  Vento > 20 kt






- Altitudine del aeroporto : 122 ft
- Codice IATA : YTQ


CYTQ - Tasiujaq

ULTIMO METAR :
  • 091800Z 03022G27KT 1 3/4SM -SN BLSN SCT009 OVC015 M04/M05 A2985 RMK SC3SC5 SLP112

METARs OBSOLETI :
  • 091700Z 03023KT 2SM -SN BLSN BKN008 OVC014 M04/M05 A2984 RMK SC5SC3 SLP111
  • 091600Z 03021G30KT 2SM -SN BLSN BKN008 OVC014 M03/M05 A2983 RMK SC6SC2 SLP108

TAF AMD TAF CYTQ
Valido dal 09 a 18 ore il 09 a 21 ore UTC


091807Z 0918/0921 03020G32KT 11/2SM -SN BLSN OVC008
TEMPO 0918/0921 6SM -SN SCT008 OVC015 RMK NXT FCST WILL BE ISSUED AT 101345Z



MetMap, La meteo Aeronautica in un colpo d'occhio ! - Copyright ORBIFLY Dicembre 2007 - Disclaimer

ORBIFLY MET'MAP TEAM :

Programmazione e sviluppo : Alexandra Zaïnal
Concezione : Baudouin d'Aumeries
Aiuto per la programmazione : Marc-Olivier Méhu
Supporto tecnico e logistico : Manuel Goepfert
Aiuto per la traduzione : Arnaldo La Scala

Contatto : metmap@orbifly.com




FONTI E CREDITI :

   NOAA